Allendale, California
Current Conditions -  °F | °C
As of 6:06 PM on Thursday 20 Nov 2014 (Local Time) from KVCB Reporting Station
Haze Haze  
Wind Chill: 53°   Ceiling: 700
Heat Index: 53°   Visibility: 3mi
Dew Point: 51°   Wind: 0mph
Humidity: 93%   Direction: NA
Pressure: 30.03"   Gusts: NA
Location:  38.4195°N, 122.026°W
Report Text: KVCB 210206Z AUTO 00000KT 3SM BR OVC007 12/11 A3003 RMK AO2 T01170106 TSNO
Loading
Personal Weather Stations






























Interactive Weather Map New forecast layout! Learn more

10-Day Weather Forecast

Advertisements
Track Severe Weather on mobile